createdAt,value
2019-06-26T00:00:02.675Z,100759.86
2019-06-26T00:02:10.982Z,100754.52
2019-06-26T00:04:17.453Z,100747.88
2019-06-26T00:06:23.913Z,100748.29
2019-06-26T00:08:30.348Z,100746.52
2019-06-26T00:10:36.787Z,100739.91
2019-06-26T00:12:43.574Z,100734.61
2019-06-26T00:14:50.090Z,100738.73
2019-06-26T00:16:56.469Z,100736.55
2019-06-26T00:19:02.854Z,100732.97
2019-06-26T00:21:09.464Z,100732.63
2019-06-26T00:23:15.867Z,100728.25
2019-06-26T00:25:22.294Z,100729.27
2019-06-26T00:27:28.728Z,100734.23
2019-06-26T00:29:35.248Z,100729.34
2019-06-26T00:31:41.668Z,100729.47
2019-06-26T00:33:48.113Z,100726.81
2019-06-26T00:35:54.660Z,100727.24
2019-06-26T00:38:01.041Z,100720.55
2019-06-26T00:40:08.396Z,100729.94
2019-06-26T00:42:14.810Z,100726.81
2019-06-26T00:44:21.212Z,100730.91
2019-06-26T00:46:27.761Z,100726.53
2019-06-26T00:48:34.191Z,100725.69
2019-06-26T00:50:40.561Z,100725.30
2019-06-26T00:52:47.135Z,100721.38
2019-06-26T00:54:53.693Z,100718.73
2019-06-26T00:57:00.153Z,100722.31
2019-06-26T00:59:06.550Z,100716.13
2019-06-26T01:01:13.039Z,100716.97
2019-06-26T01:03:19.532Z,100708.89
2019-06-26T01:05:25.907Z,100705.86
2019-06-26T01:07:32.339Z,100712.71
2019-06-26T01:09:38.842Z,100716.84
2019-06-26T01:11:45.865Z,100709.30
2019-06-26T01:13:58.020Z,100706.89
2019-06-26T01:16:00.393Z,100710.08
2019-06-26T01:18:06.955Z,100703.44
2019-06-26T01:20:13.862Z,100707.09
2019-06-26T01:22:20.289Z,100710.81
2019-06-26T01:24:26.660Z,100707.75
2019-06-26T01:26:33.111Z,100706.02
2019-06-26T01:28:39.490Z,100705.63
2019-06-26T01:30:45.884Z,100701.17
2019-06-26T01:32:52.438Z,100700.86
2019-06-26T01:34:59.936Z,100701.78
2019-06-26T01:37:06.382Z,100698.79
2019-06-26T01:39:12.836Z,100693.03
2019-06-26T01:41:19.388Z,100699.44
2019-06-26T01:43:25.825Z,100696.36
2019-06-26T01:45:32.282Z,100699.55
2019-06-26T01:47:38.890Z,100693.79
2019-06-26T01:49:45.361Z,100690.75
2019-06-26T01:51:51.878Z,100698.01
2019-06-26T01:53:58.341Z,100701.20
2019-06-26T01:56:05.018Z,100694.09
2019-06-26T01:58:11.413Z,100694.58
2019-06-26T02:00:18.891Z,100692.81
2019-06-26T02:02:25.590Z,100692.89
2019-06-26T02:04:32.068Z,100690.20
2019-06-26T02:06:38.435Z,100684.89
2019-06-26T02:08:44.909Z,100685.86
2019-06-26T02:10:52.504Z,100682.74
2019-06-26T02:12:58.982Z,100686.31
2019-06-26T02:15:08.032Z,100680.55
2019-06-26T02:17:14.664Z,100682.32
2019-06-26T02:19:21.318Z,100677.02
2019-06-26T02:21:27.851Z,100682.81
2019-06-26T02:23:34.279Z,100683.27
2019-06-26T02:25:41.746Z,100681.01
2019-06-26T02:27:48.137Z,100677.89
2019-06-26T02:29:54.553Z,100677.44
2019-06-26T02:32:01.043Z,100680.16
2019-06-26T02:34:07.614Z,100678.36
2019-06-26T02:36:14.093Z,100675.63
2019-06-26T02:38:20.546Z,100674.71
2019-06-26T02:40:27.168Z,100672.38
2019-06-26T02:42:33.870Z,100673.19
2019-06-26T02:44:52.953Z,100670.42
2019-06-26T02:46:48.601Z,100676.22
2019-06-26T02:48:54.983Z,100667.69
2019-06-26T02:51:01.395Z,100670.27
2019-06-26T02:53:07.880Z,100665.73
2019-06-26T02:55:14.489Z,100675.46
2019-06-26T02:57:21.010Z,100667.31
2019-06-26T02:59:27.399Z,100669.00
2019-06-26T03:01:34.035Z,100666.20
2019-06-26T03:03:40.472Z,100662.97
2019-06-26T03:05:46.855Z,100659.66
2019-06-26T03:07:53.298Z,100659.55
2019-06-26T03:09:59.710Z,100663.50
2019-06-26T03:12:06.287Z,100659.47
2019-06-26T03:14:12.692Z,100656.70
2019-06-26T03:16:19.149Z,100651.19
2019-06-26T03:18:25.589Z,100651.95
2019-06-26T03:20:39.442Z,100655.88
2019-06-26T03:22:45.878Z,100652.22
2019-06-26T03:24:52.248Z,100648.86
2019-06-26T03:26:58.705Z,100649.16
2019-06-26T03:29:05.300Z,100649.82
2019-06-26T03:31:11.821Z,100646.87
2019-06-26T03:33:18.240Z,100640.09
2019-06-26T03:35:24.735Z,100638.41
2019-06-26T03:37:31.173Z,100640.80
2019-06-26T03:39:37.548Z,100635.56
2019-06-26T03:41:43.971Z,100635.70
2019-06-26T03:43:50.392Z,100638.97
2019-06-26T03:45:56.802Z,100630.56
2019-06-26T03:48:03.216Z,100628.00
2019-06-26T03:50:10.400Z,100632.16
2019-06-26T03:52:16.806Z,100639.72
2019-06-26T03:54:23.305Z,100636.55
2019-06-26T03:56:29.839Z,100637.00
2019-06-26T03:58:36.251Z,100640.63
2019-06-26T04:00:44.654Z,100635.09
2019-06-26T04:02:51.167Z,100639.02
2019-06-26T04:04:57.579Z,100627.10
2019-06-26T04:07:05.537Z,100627.77
2019-06-26T04:09:11.947Z,100630.52
2019-06-26T04:11:18.377Z,100633.52
2019-06-26T04:13:24.829Z,100629.58
2019-06-26T04:15:41.872Z,100629.20
2019-06-26T04:17:41.524Z,100633.55
2019-06-26T04:19:47.939Z,100632.34
2019-06-26T04:21:54.375Z,100636.16
2019-06-26T04:24:01.025Z,100632.59
2019-06-26T04:26:07.684Z,100635.33
2019-06-26T04:28:14.127Z,100628.36
2019-06-26T04:30:21.979Z,100635.41
2019-06-26T04:32:28.414Z,100633.98
2019-06-26T04:34:34.880Z,100637.64
2019-06-26T04:36:41.371Z,100629.90
2019-06-26T04:38:47.756Z,100631.92
2019-06-26T04:40:54.198Z,100625.02
2019-06-26T04:43:00.679Z,100629.97
2019-06-26T04:45:08.858Z,100629.53
2019-06-26T04:47:15.477Z,100627.17
2019-06-26T04:49:22.025Z,100627.32
2019-06-26T04:51:28.575Z,100627.55
2019-06-26T04:53:35.067Z,100620.80
2019-06-26T04:55:41.444Z,100623.37
2019-06-26T04:57:47.855Z,100619.20
2019-06-26T04:59:55.451Z,100615.21
2019-06-26T05:02:02.002Z,100612.66
2019-06-26T05:04:08.473Z,100607.39
2019-06-26T05:06:14.888Z,100604.97
2019-06-26T05:08:21.317Z,100606.83
2019-06-26T05:10:27.730Z,100600.63
2019-06-26T05:12:34.230Z,100601.47
2019-06-26T05:14:40.644Z,100600.42
2019-06-26T05:16:47.563Z,100598.64
2019-06-26T05:18:54.032Z,100598.53
2019-06-26T05:21:00.601Z,100606.09
2019-06-26T05:23:07.063Z,100607.63
2019-06-26T05:25:16.486Z,100601.19
2019-06-26T05:27:22.955Z,100597.99
2019-06-26T05:29:29.414Z,100602.84
2019-06-26T05:31:35.938Z,100598.12
2019-06-26T05:33:42.356Z,100592.06
2019-06-26T05:35:49.003Z,100594.52
2019-06-26T05:37:55.376Z,100595.38
2019-06-26T05:40:01.829Z,100590.21
2019-06-26T05:42:09.544Z,100592.27
2019-06-26T05:44:15.930Z,100589.09
2019-06-26T05:46:31.040Z,100591.56
2019-06-26T05:48:30.466Z,100590.66
2019-06-26T05:50:36.915Z,100582.11
2019-06-26T05:52:43.407Z,100583.30
2019-06-26T05:54:49.769Z,100590.17
2019-06-26T05:56:56.223Z,100582.53
2019-06-26T05:59:02.733Z,100579.33
2019-06-26T06:01:09.463Z,100581.48
2019-06-26T06:03:15.943Z,100584.00
2019-06-26T06:05:22.389Z,100580.52
2019-06-26T06:07:28.793Z,100581.82
2019-06-26T06:09:35.252Z,100582.30
2019-06-26T06:11:41.724Z,100584.78
2019-06-26T06:13:48.142Z,100577.16
2019-06-26T06:15:54.578Z,100580.50
2019-06-26T06:18:01.027Z,100581.91
2019-06-26T06:20:10.031Z,100589.61
2019-06-26T06:22:16.593Z,100574.22
2019-06-26T06:24:23.003Z,100577.58
2019-06-26T06:26:29.379Z,100580.75
2019-06-26T06:28:35.792Z,100582.80
2019-06-26T06:30:42.238Z,100584.11
2019-06-26T06:32:48.748Z,100589.44
2019-06-26T06:34:55.647Z,100582.86
2019-06-26T06:37:02.267Z,100577.78
2019-06-26T06:39:08.728Z,100582.67
2019-06-26T06:41:15.121Z,100581.59
2019-06-26T06:43:22.758Z,100576.44
2019-06-26T06:45:30.716Z,100573.92
2019-06-26T06:47:37.192Z,100575.08
2019-06-26T06:49:43.651Z,100569.98
2019-06-26T06:51:50.720Z,100573.10
2019-06-26T06:53:57.151Z,100574.12
2019-06-26T06:56:03.565Z,100570.82
2019-06-26T06:58:10.014Z,100571.84
2019-06-26T07:00:18.636Z,100565.22
2019-06-26T07:02:25.075Z,100567.70
2019-06-26T07:04:31.566Z,100556.38
2019-06-26T07:06:38.264Z,100556.17
2019-06-26T07:08:44.931Z,100558.36
2019-06-26T07:10:51.342Z,100561.85
2019-06-26T07:12:57.877Z,100557.28
2019-06-26T07:15:09.314Z,100558.31
2019-06-26T07:17:20.359Z,100559.18
2019-06-26T07:19:24.209Z,100553.70
2019-06-26T07:21:31.836Z,100549.20
2019-06-26T07:23:38.321Z,100557.31
2019-06-26T07:25:44.772Z,100549.08
2019-06-26T07:27:51.285Z,100555.37
2019-06-26T07:29:57.699Z,100562.50
2019-06-26T07:32:04.198Z,100553.09
2019-06-26T07:34:10.593Z,100553.64
2019-06-26T07:36:17.049Z,100552.91
2019-06-26T07:38:23.979Z,100553.97
2019-06-26T07:40:30.413Z,100549.02
2019-06-26T07:42:36.790Z,100553.41
2019-06-26T07:44:43.185Z,100549.69
2019-06-26T07:46:49.579Z,100556.67
2019-06-26T07:48:57.636Z,100548.78
2019-06-26T07:51:04.371Z,100545.17
2019-06-26T07:53:10.871Z,100542.91
2019-06-26T07:55:17.705Z,100549.85
2019-06-26T07:57:24.487Z,100543.56
2019-06-26T07:59:30.903Z,100538.89
2019-06-26T08:01:37.314Z,100539.66
2019-06-26T08:03:43.721Z,100539.03
2019-06-26T08:05:50.181Z,100543.22
2019-06-26T08:07:56.660Z,100538.86
2019-06-26T08:10:03.352Z,100531.92
2019-06-26T08:12:09.732Z,100532.19
2019-06-26T08:14:16.301Z,100533.11
2019-06-26T08:16:22.808Z,100533.09
2019-06-26T08:18:29.335Z,100522.52
2019-06-26T08:20:51.600Z,100522.98
2019-06-26T08:22:43.893Z,100519.62
2019-06-26T08:24:50.366Z,100516.91
2019-06-26T08:26:56.770Z,100513.98
2019-06-26T08:29:03.195Z,100504.39
2019-06-26T08:31:09.595Z,100513.20
2019-06-26T08:33:16.210Z,100511.71
2019-06-26T08:35:22.693Z,100509.16
2019-06-26T08:37:29.154Z,100511.11
2019-06-26T08:39:35.565Z,100505.47
2019-06-26T08:41:41.935Z,100504.67
2019-06-26T08:43:48.398Z,100497.22
2019-06-26T08:45:54.868Z,100505.61
2019-06-26T08:48:16.803Z,100497.44
2019-06-26T08:50:11.333Z,100491.24
2019-06-26T08:52:18.810Z,100488.28
2019-06-26T08:54:25.251Z,100499.80
2019-06-26T08:56:31.694Z,100492.43
2019-06-26T08:58:38.114Z,100493.59
2019-06-26T09:00:44.641Z,100488.53
2019-06-26T09:02:51.158Z,100485.63
2019-06-26T09:04:57.540Z,100481.41
2019-06-26T09:07:04.046Z,100488.27
2019-06-26T09:09:10.561Z,100481.57
2019-06-26T09:11:17.050Z,100471.91
2019-06-26T09:13:23.470Z,100474.36
2019-06-26T09:15:29.913Z,100474.25
2019-06-26T09:17:37.186Z,100468.24
2019-06-26T09:19:43.607Z,100466.77
2019-06-26T09:21:50.458Z,100467.34
2019-06-26T09:23:56.881Z,100467.14
2019-06-26T09:26:03.424Z,100462.52
2019-06-26T09:28:09.951Z,100456.69
2019-06-26T09:30:16.839Z,100456.98
2019-06-26T09:32:23.343Z,100454.88
2019-06-26T09:34:29.757Z,100449.25
2019-06-26T09:36:36.233Z,100447.37
2019-06-26T09:38:42.756Z,100440.63
2019-06-26T09:40:49.151Z,100438.06
2019-06-26T09:42:55.552Z,100435.72
2019-06-26T09:45:02.108Z,100436.61
2019-06-26T09:47:08.826Z,100442.70
2019-06-26T09:49:15.266Z,100435.59
2019-06-26T09:51:21.737Z,100429.23
2019-06-26T09:53:32.497Z,100427.40
2019-06-26T09:55:36.520Z,100420.44
2019-06-26T09:57:42.902Z,100428.27
2019-06-26T09:59:49.298Z,100420.20
2019-06-26T10:01:55.706Z,100417.19
2019-06-26T10:04:02.126Z,100415.95
2019-06-26T10:06:08.641Z,100417.84
2019-06-26T10:08:15.036Z,100414.62
2019-06-26T10:10:22.797Z,100423.73
2019-06-26T10:12:29.261Z,100415.31
2019-06-26T10:14:47.429Z,100412.67
2019-06-26T10:16:43.860Z,100410.86
2019-06-26T10:18:50.412Z,100406.29
2019-06-26T10:20:56.827Z,100405.33
2019-06-26T10:23:03.280Z,100403.99
2019-06-26T10:25:11.787Z,100400.51
2019-06-26T10:27:18.508Z,100391.29
2019-06-26T10:29:25.248Z,100391.71
2019-06-26T10:31:31.638Z,100386.21
2019-06-26T10:33:38.124Z,100389.74
2019-06-26T10:35:44.618Z,100385.32
2019-06-26T10:37:51.915Z,100382.84
2019-06-26T10:39:58.340Z,100383.35
2019-06-26T10:42:06.061Z,100377.94
2019-06-26T10:44:12.651Z,100371.34
2019-06-26T10:46:19.211Z,100374.45
2019-06-26T10:48:25.646Z,100368.83
2019-06-26T10:50:32.086Z,100370.85
2019-06-26T10:52:38.543Z,100372.43
2019-06-26T10:54:45.044Z,100368.16
2019-06-26T10:56:51.680Z,100372.21
2019-06-26T10:58:58.151Z,100356.72
2019-06-26T11:01:04.761Z,100349.31
2019-06-26T11:03:11.140Z,100353.66
2019-06-26T11:05:18.505Z,100350.00
2019-06-26T11:07:24.886Z,100355.92
2019-06-26T11:09:31.307Z,100346.46
2019-06-26T11:11:37.884Z,100340.59
2019-06-26T11:13:44.350Z,100344.19
2019-06-26T11:15:50.754Z,100338.68
2019-06-26T11:17:58.396Z,100334.69
2019-06-26T11:20:08.933Z,100342.67
2019-06-26T11:22:15.334Z,100330.23
2019-06-26T11:24:21.723Z,100323.95
2019-06-26T11:26:28.136Z,100326.94
2019-06-26T11:28:35.495Z,100326.00
2019-06-26T11:30:42.012Z,100324.12
2019-06-26T11:32:48.450Z,100314.16
2019-06-26T11:34:54.952Z,100301.36
2019-06-26T11:37:04.070Z,100295.67
2019-06-26T11:39:08.950Z,100301.29
2019-06-26T11:41:15.313Z,100292.05
2019-06-26T11:43:21.730Z,100295.89
2019-06-26T11:45:28.455Z,100303.33
2019-06-26T11:47:34.903Z,100302.52
2019-06-26T11:49:41.338Z,100292.38
2019-06-26T11:51:48.522Z,100290.50
2019-06-26T11:53:55.043Z,100287.20
2019-06-26T11:56:01.443Z,100283.94
2019-06-26T11:58:07.897Z,100274.84
2019-06-26T12:00:18.140Z,100279.27
2019-06-26T12:02:24.762Z,100270.09
2019-06-26T12:04:31.843Z,100268.30
2019-06-26T12:06:38.450Z,100261.31
2019-06-26T12:08:44.919Z,100261.30
2019-06-26T12:10:51.361Z,100254.54
2019-06-26T12:12:57.767Z,100254.59
2019-06-26T12:15:05.257Z,100254.19
2019-06-26T12:17:11.668Z,100248.21
2019-06-26T12:19:21.018Z,100250.81
2019-06-26T12:21:25.454Z,100243.61
2019-06-26T12:23:31.715Z,100244.05
2019-06-26T12:25:38.455Z,100231.31
2019-06-26T12:27:45.150Z,100230.59
2019-06-26T12:29:51.535Z,100223.30
2019-06-26T12:31:57.944Z,100223.63
2019-06-26T12:34:04.545Z,100221.59
2019-06-26T12:36:10.991Z,100220.86
2019-06-26T12:38:17.445Z,100207.47
2019-06-26T12:40:24.052Z,100212.22
2019-06-26T12:42:31.714Z,100215.22
2019-06-26T12:44:38.104Z,100209.44
2019-06-26T12:46:44.558Z,100214.64
2019-06-26T12:48:50.958Z,100204.85
2019-06-26T12:50:57.583Z,100197.92
2019-06-26T12:53:03.986Z,100195.68
2019-06-26T12:55:11.060Z,100197.90
2019-06-26T12:57:17.457Z,100196.75
2019-06-26T12:59:23.842Z,100198.20
2019-06-26T13:01:30.316Z,100193.77
2019-06-26T13:03:37.883Z,100189.48
2019-06-26T13:05:44.363Z,100187.75
2019-06-26T13:07:50.742Z,100190.86
2019-06-26T13:09:57.191Z,100180.30
2019-06-26T13:12:03.633Z,100172.33
2019-06-26T13:14:10.689Z,100170.42
2019-06-26T13:16:17.172Z,100168.48
2019-06-26T13:18:23.599Z,100167.92
2019-06-26T13:20:30.095Z,100159.72
2019-06-26T13:22:36.647Z,100156.02
2019-06-26T13:24:44.210Z,100160.14
2019-06-26T13:26:54.326Z,100155.66
2019-06-26T13:28:58.184Z,100147.27
2019-06-26T13:31:05.728Z,100141.17
2019-06-26T13:33:12.289Z,100137.25
2019-06-26T13:35:18.769Z,100131.60
2019-06-26T13:37:25.331Z,100140.97
2019-06-26T13:39:31.859Z,100135.83
2019-06-26T13:41:38.377Z,100132.19
2019-06-26T13:43:45.965Z,100136.97
2019-06-26T13:45:52.481Z,100125.96
2019-06-26T13:47:59.050Z,100121.50
2019-06-26T13:50:09.115Z,100124.34
2019-06-26T13:52:15.504Z,100117.91
2019-06-26T13:54:22.081Z,100119.34
2019-06-26T13:56:28.532Z,100117.11
2019-06-26T13:58:35.117Z,100107.20
2019-06-26T14:00:41.556Z,100104.84
2019-06-26T14:02:48.137Z,100104.55
2019-06-26T14:04:54.734Z,100103.86
2019-06-26T14:07:01.257Z,100097.47
2019-06-26T14:09:09.281Z,100095.98
2019-06-26T14:11:15.820Z,100095.42
2019-06-26T14:13:22.250Z,100094.59
2019-06-26T14:15:28.799Z,100083.70
2019-06-26T14:17:35.320Z,100089.84
2019-06-26T14:19:41.851Z,100085.00
2019-06-26T14:21:48.263Z,100079.04
2019-06-26T14:23:54.764Z,100068.66
2019-06-26T14:26:01.337Z,100068.11
2019-06-26T14:28:07.904Z,100074.53
2019-06-26T14:30:14.931Z,100066.25
2019-06-26T14:32:22.387Z,100065.98
2019-06-26T14:34:29.921Z,100068.28
2019-06-26T14:36:36.576Z,100056.77
2019-06-26T14:38:44.335Z,100056.25
2019-06-26T14:40:50.889Z,100053.13
2019-06-26T14:42:57.394Z,100053.44
2019-06-26T14:45:05.419Z,100048.14
2019-06-26T14:47:11.989Z,100038.76
2019-06-26T14:49:18.629Z,100040.34
2019-06-26T14:51:37.786Z,100033.47
2019-06-26T14:53:32.611Z,100027.16
2019-06-26T14:55:39.004Z,100029.61
2019-06-26T14:57:46.678Z,100025.81
2019-06-26T14:59:53.128Z,100023.33
2019-06-26T15:01:59.578Z,100021.09
2019-06-26T15:04:07.702Z,100013.70
2019-06-26T15:06:16.939Z,100012.63
2019-06-26T15:08:21.599Z,100017.47
2019-06-26T15:10:27.958Z,100014.63
2019-06-26T15:12:34.575Z,100007.33
2019-06-26T15:14:41.037Z,100004.84
2019-06-26T15:16:47.455Z,100008.08
2019-06-26T15:18:53.907Z,99999.38
2019-06-26T15:21:03.813Z,99994.75
2019-06-26T15:23:10.374Z,99996.27
2019-06-26T15:25:17.779Z,99988.89
2019-06-26T15:27:24.317Z,99991.05
2019-06-26T15:29:31.945Z,99982.38
2019-06-26T15:31:38.432Z,99975.71
2019-06-26T15:33:44.958Z,99974.19
2019-06-26T15:35:51.565Z,99974.63
2019-06-26T15:37:57.988Z,99969.77
2019-06-26T15:40:06.375Z,99963.23
2019-06-26T15:42:12.762Z,99967.16
2019-06-26T15:44:19.255Z,99965.45
2019-06-26T15:46:25.811Z,99967.48
2019-06-26T15:48:32.251Z,99958.23
2019-06-26T15:50:38.668Z,99950.85
2019-06-26T15:52:45.102Z,99948.21
2019-06-26T15:54:53.122Z,99948.13
2019-06-26T15:56:59.485Z,99941.11
2019-06-26T15:59:06.001Z,99945.46
2019-06-26T16:01:12.485Z,99937.86
2019-06-26T16:03:18.931Z,99939.60
2019-06-26T16:05:26.558Z,99930.60
2019-06-26T16:07:33.568Z,99929.38
2019-06-26T16:09:39.997Z,99928.76
2019-06-26T16:11:46.486Z,99924.82
2019-06-26T16:13:53.009Z,99918.88
2019-06-26T16:15:59.690Z,99923.95
2019-06-26T16:18:20.940Z,99915.55
2019-06-26T16:20:27.447Z,99917.08
2019-06-26T16:22:33.937Z,99909.33
2019-06-26T16:24:40.373Z,99913.96
2019-06-26T16:26:47.287Z,99909.98
2019-06-26T16:28:53.799Z,99906.38
2019-06-26T16:31:00.273Z,99907.09
2019-06-26T16:33:06.774Z,99905.91
2019-06-26T16:35:15.457Z,99907.22
2019-06-26T16:37:23.132Z,99903.31
2019-06-26T16:39:31.226Z,99900.31
2019-06-26T16:41:38.181Z,99899.58
2019-06-26T16:43:45.804Z,99903.05
2019-06-26T16:45:52.327Z,99905.75
2019-06-26T16:47:58.776Z,99898.30
2019-06-26T16:50:08.581Z,99892.02
2019-06-26T16:52:15.027Z,99897.60
2019-06-26T16:54:21.443Z,99886.83
2019-06-26T16:56:28.005Z,99891.04
2019-06-26T16:58:34.655Z,99886.84
2019-06-26T17:00:41.069Z,99889.61
2019-06-26T17:02:47.872Z,99879.37
2019-06-26T17:04:54.421Z,99876.19
2019-06-26T17:07:02.328Z,99878.87
2019-06-26T17:09:10.480Z,99873.95
2019-06-26T17:11:18.675Z,99874.41
2019-06-26T17:13:24.500Z,99868.83
2019-06-26T17:15:30.892Z,99864.77
2019-06-26T17:17:38.751Z,99860.88
2019-06-26T17:19:45.203Z,99868.12
2019-06-26T17:21:52.101Z,99868.62
2019-06-26T17:23:58.618Z,99868.25
2019-06-26T17:26:05.234Z,99865.01
2019-06-26T17:28:11.692Z,99860.89
2019-06-26T17:30:19.306Z,99866.83
2019-06-26T17:32:25.920Z,99866.73
2019-06-26T17:34:32.582Z,99861.66
2019-06-26T17:36:39.166Z,99858.50
2019-06-26T17:38:45.646Z,99859.28
2019-06-26T17:40:52.135Z,99861.66
2019-06-26T17:43:11.925Z,99860.83
2019-06-26T17:45:09.631Z,99863.51
2019-06-26T17:47:15.880Z,99858.70
2019-06-26T17:49:22.344Z,99866.38
2019-06-26T17:51:28.886Z,99860.93
2019-06-26T17:53:35.497Z,99854.28
2019-06-26T17:55:41.894Z,99855.82
2019-06-26T17:57:48.437Z,99851.91
2019-06-26T17:59:55.215Z,99853.81
2019-06-26T18:02:01.843Z,99850.41
2019-06-26T18:04:08.476Z,99851.97
2019-06-26T18:06:14.969Z,99853.59
2019-06-26T18:08:21.377Z,99850.44
2019-06-26T18:10:27.995Z,99851.39
2019-06-26T18:12:34.430Z,99849.43
2019-06-26T18:14:43.176Z,99841.16
2019-06-26T18:16:48.931Z,99838.83
2019-06-26T18:18:55.389Z,99846.47
2019-06-26T18:21:01.822Z,99848.11
2019-06-26T18:23:08.675Z,99849.89
2019-06-26T18:25:16.702Z,99846.95
2019-06-26T18:27:23.500Z,99844.48
2019-06-26T18:29:29.986Z,99840.63
2019-06-26T18:31:36.582Z,99840.55
2019-06-26T18:33:44.367Z,99839.05
2019-06-26T18:35:50.978Z,99834.23
2019-06-26T18:37:57.600Z,99835.50
2019-06-26T18:40:05.076Z,99833.51
2019-06-26T18:42:13.155Z,99834.73
2019-06-26T18:44:21.531Z,99830.16
2019-06-26T18:46:29.929Z,99828.05
2019-06-26T18:48:37.554Z,99824.08
2019-06-26T18:50:44.071Z,99819.98
2019-06-26T18:52:50.447Z,99824.87
2019-06-26T18:54:56.897Z,99824.36
2019-06-26T18:57:03.287Z,99825.44
2019-06-26T18:59:09.686Z,99824.17
2019-06-26T19:01:16.190Z,99823.80
2019-06-26T19:03:22.600Z,99823.11
2019-06-26T19:05:29.100Z,99821.27
2019-06-26T19:07:35.511Z,99828.92
2019-06-26T19:09:42.065Z,99823.73
2019-06-26T19:11:48.455Z,99824.75
2019-06-26T19:13:54.834Z,99820.69
2019-06-26T19:16:04.347Z,99813.00
2019-06-26T19:18:09.394Z,99814.27
2019-06-26T19:20:16.649Z,99812.33
2019-06-26T19:22:23.115Z,99810.16
2019-06-26T19:24:29.564Z,99810.90
2019-06-26T19:26:35.968Z,99805.14
2019-06-26T19:28:42.343Z,99793.46
2019-06-26T19:30:48.823Z,99792.97
2019-06-26T19:32:55.347Z,99791.67
2019-06-26T19:35:08.193Z,99789.37
2019-06-26T19:37:10.026Z,99781.52
2019-06-26T19:39:16.474Z,99777.41
2019-06-26T19:41:23.026Z,99779.94
2019-06-26T19:43:29.412Z,99776.69
2019-06-26T19:45:35.802Z,99776.50
2019-06-26T19:47:42.238Z,99772.25
2019-06-26T19:49:48.612Z,99769.25
2019-06-26T19:51:55.143Z,99769.20
2019-06-26T19:54:04.714Z,99764.36
2019-06-26T19:56:11.067Z,99769.12
2019-06-26T19:58:21.315Z,99768.55
2019-06-26T20:00:25.712Z,99765.74
2019-06-26T20:02:32.233Z,99761.58
2019-06-26T20:04:38.863Z,99761.33
2019-06-26T20:06:45.285Z,99760.17
2019-06-26T20:08:57.187Z,99755.91
2019-06-26T20:11:00.239Z,99753.39
2019-06-26T20:13:06.965Z,99750.14
2019-06-26T20:15:15.251Z,99748.39
2019-06-26T20:17:21.739Z,99740.84
2019-06-26T20:19:28.216Z,99748.11
2019-06-26T20:21:36.401Z,99738.61
2019-06-26T20:23:42.902Z,99738.12
2019-06-26T20:25:49.288Z,99730.46
2019-06-26T20:27:57.132Z,99727.84
2019-06-26T20:30:09.380Z,99731.14
2019-06-26T20:32:14.066Z,99727.30
2019-06-26T20:34:20.491Z,99719.84
2019-06-26T20:36:26.956Z,99719.17
2019-06-26T20:38:33.412Z,99711.71
2019-06-26T20:40:40.070Z,99710.09
2019-06-26T20:42:46.548Z,99704.00
2019-06-26T20:44:53.293Z,99709.52
2019-06-26T20:46:59.714Z,99707.78
2019-06-26T20:49:08.749Z,99701.58
2019-06-26T20:51:15.245Z,99695.28
2019-06-26T20:53:21.673Z,99699.45
2019-06-26T20:55:28.112Z,99698.64
2019-06-26T20:57:34.539Z,99695.06
2019-06-26T20:59:41.558Z,99690.89
2019-06-26T21:01:48.055Z,99691.70
2019-06-26T21:03:54.490Z,99682.20
2019-06-26T21:06:00.922Z,99685.78
2019-06-26T21:08:09.022Z,99683.17
2019-06-26T21:10:15.711Z,99691.31
2019-06-26T21:12:22.121Z,99687.24
2019-06-26T21:14:28.604Z,99689.37
2019-06-26T21:16:36.819Z,99695.76
2019-06-26T21:18:43.247Z,99694.08
2019-06-26T21:20:49.711Z,99697.84
2019-06-26T21:22:56.502Z,99692.81
2019-06-26T21:25:17.435Z,99692.14
2019-06-26T21:27:15.380Z,99686.66
2019-06-26T21:29:24.973Z,99684.81
2019-06-26T21:31:31.606Z,99686.17
2019-06-26T21:33:41.299Z,99686.47
2019-06-26T21:35:47.745Z,99685.80
2019-06-26T21:37:54.422Z,99687.34
2019-06-26T21:40:01.023Z,99677.20
2019-06-26T21:42:08.675Z,99672.95
2019-06-26T21:44:15.200Z,99673.53
2019-06-26T21:46:21.611Z,99673.33
2019-06-26T21:48:28.281Z,99666.78
2019-06-26T21:50:35.891Z,99674.23
2019-06-26T21:52:42.360Z,99673.55
2019-06-26T21:54:48.814Z,99676.10
2019-06-26T21:57:12.760Z,99673.20
2019-06-26T21:59:36.844Z,99677.06
2019-06-26T22:02:01.215Z,99678.05
2019-06-26T22:04:25.476Z,99678.82
2019-06-26T22:06:48.724Z,99671.81
2019-06-26T22:08:56.880Z,99667.58
2019-06-26T22:11:04.710Z,99668.73
2019-06-26T22:13:11.416Z,99670.48
2019-06-26T22:15:19.076Z,99665.26
2019-06-26T22:17:25.946Z,99664.87
2019-06-26T22:19:32.679Z,99658.28
2019-06-26T22:21:39.541Z,99652.77
2019-06-26T22:23:46.016Z,99652.29
2019-06-26T22:25:52.528Z,99645.13
2019-06-26T22:27:58.928Z,99648.80
2019-06-26T22:30:09.299Z,99639.50
2019-06-26T22:32:15.871Z,99646.50
2019-06-26T22:34:22.378Z,99637.78
2019-06-26T22:36:28.751Z,99635.64
2019-06-26T22:38:35.196Z,99636.22
2019-06-26T22:40:41.703Z,99637.19
2019-06-26T22:42:48.098Z,99644.53
2019-06-26T22:44:54.546Z,99646.36
2019-06-26T22:47:01.041Z,99649.46
2019-06-26T22:49:07.692Z,99644.53
2019-06-26T22:51:14.138Z,99641.81
2019-06-26T22:53:20.642Z,99644.53
2019-06-26T22:55:27.028Z,99645.30
2019-06-26T22:57:33.506Z,99643.19
2019-06-26T22:59:39.893Z,99650.91
2019-06-26T23:01:46.397Z,99650.64
2019-06-26T23:03:52.881Z,99675.04
2019-06-26T23:05:59.264Z,99691.95
2019-06-26T23:08:05.883Z,99687.21
2019-06-26T23:10:12.807Z,99710.72
2019-06-26T23:12:19.315Z,99690.02
2019-06-26T23:14:25.747Z,99709.38
2019-06-26T23:16:32.179Z,99696.60
2019-06-26T23:18:38.674Z,99685.97
2019-06-26T23:20:45.115Z,99679.94
2019-06-26T23:22:51.819Z,99680.08
2019-06-26T23:24:58.345Z,99669.22
2019-06-26T23:27:04.914Z,99671.34
2019-06-26T23:29:11.366Z,99668.16
2019-06-26T23:31:17.778Z,99675.70
2019-06-26T23:33:24.292Z,99672.32
2019-06-26T23:35:30.736Z,99670.39
2019-06-26T23:37:38.294Z,99664.00
2019-06-26T23:39:45.028Z,99678.03
2019-06-26T23:41:51.423Z,99673.97
2019-06-26T23:43:57.812Z,99674.94
2019-06-26T23:46:04.698Z,99682.20
2019-06-26T23:48:11.128Z,99679.20
2019-06-26T23:50:17.957Z,99671.64
2019-06-26T23:52:24.396Z,99658.77
2019-06-26T23:54:30.829Z,99667.02
2019-06-26T23:56:40.772Z,99673.98
2019-06-26T23:58:45.366Z,99678.23
